createdAt,value
2023-02-01T00:01:43.710Z,98288.47
2023-02-01T00:04:13.386Z,98285.91
2023-02-01T00:06:42.397Z,98294.31
2023-02-01T00:09:11.500Z,98293.41
2023-02-01T00:11:40.447Z,98288.31
2023-02-01T00:14:10.599Z,98291.03
2023-02-01T00:16:41.447Z,98291.03
2023-02-01T00:19:13.833Z,98286.22
2023-02-01T00:21:43.272Z,98290.59
2023-02-01T00:24:13.107Z,98286.22
2023-02-01T00:26:44.481Z,98294.81
2023-02-01T00:29:16.112Z,98286.22
2023-02-01T00:31:48.051Z,98297.84
2023-02-01T00:34:18.837Z,98290.16
2023-02-01T00:36:48.689Z,98293.47
2023-02-01T00:39:19.066Z,98295.28
2023-02-01T00:41:48.263Z,98288.38
2023-02-01T00:44:17.477Z,98298.75
2023-02-01T00:46:48.502Z,98296.34
2023-02-01T00:49:17.703Z,98301.31
2023-02-01T00:51:46.694Z,98291.66
2023-02-01T00:54:15.675Z,98293.47
2023-02-01T00:56:44.646Z,98296.75
2023-02-01T00:59:14.280Z,98293.63
2023-02-01T01:01:43.393Z,98293.78
2023-02-01T01:04:14.032Z,98294.38
2023-02-01T01:06:43.030Z,98295.28
2023-02-01T01:09:12.326Z,98295.88
2023-02-01T01:11:41.388Z,98293.47
2023-02-01T01:14:11.013Z,98295.88
2023-02-01T01:16:40.622Z,98289.84
2023-02-01T01:19:09.751Z,98294.97
2023-02-01T01:21:40.846Z,98298.28
2023-02-01T01:24:09.836Z,98303.72
2023-02-01T01:26:39.315Z,98303.72
2023-02-01T01:29:08.373Z,98304.63
2023-02-01T01:31:37.473Z,98302.97
2023-02-01T01:34:06.473Z,98305.66
2023-02-01T01:36:35.498Z,98300.41
2023-02-01T01:39:05.889Z,98304.63
2023-02-01T01:41:35.300Z,98308.84
2023-02-01T01:44:59.778Z,98302.97
2023-02-01T01:47:40.226Z,98299.31
2023-02-01T01:50:12.562Z,98307.91
2023-02-01T01:52:43.769Z,98301.56
2023-02-01T01:55:15.835Z,98307.63
2023-02-01T01:57:49.217Z,98301.28
2023-02-01T02:00:22.099Z,98307.44
2023-02-01T02:02:59.302Z,98303.97
2023-02-01T02:05:29.815Z,98307.28
2023-02-01T02:08:02.643Z,98299.63
2023-02-01T02:10:47.276Z,98304.56
2023-02-01T02:13:18.647Z,98305.31
2023-02-01T02:15:54.478Z,98308.06
2023-02-01T02:18:34.265Z,98314.78
2023-02-01T02:21:16.095Z,98315.13
2023-02-01T02:24:11.857Z,98314.38
2023-02-01T02:26:59.135Z,98320.41
2023-02-01T02:30:03.861Z,98325.69
2023-02-01T02:33:03.228Z,98327.16
2023-02-01T02:35:43.318Z,98325.22
2023-02-01T02:38:20.458Z,98326.88
2023-02-01T02:40:59.831Z,98326.53
2023-02-01T02:43:55.126Z,98324.75
2023-02-01T02:46:47.210Z,98328.78
2023-02-01T02:49:23.042Z,98326.50
2023-02-01T02:52:16.726Z,98328.00
2023-02-01T02:54:52.042Z,98328.28
2023-02-01T02:57:45.620Z,98328.38
2023-02-01T03:00:35.679Z,98328.03
2023-02-01T03:03:22.986Z,98327.28
2023-02-01T03:05:53.064Z,98330.94
2023-02-01T03:08:26.599Z,98331.41
2023-02-01T03:10:59.933Z,98327.94
2023-02-01T03:13:34.752Z,98330.31
2023-02-01T03:16:09.152Z,98330.19
2023-02-01T03:18:47.925Z,98338.09
2023-02-01T03:21:22.742Z,98326.91
2023-02-01T03:23:56.061Z,98328.81
2023-02-01T03:26:28.402Z,98334.97
2023-02-01T03:29:07.966Z,98335.22
2023-02-01T03:31:37.175Z,98335.81
2023-02-01T03:34:06.782Z,98334.16
2023-02-01T03:36:45.668Z,98334.72
2023-02-01T03:39:21.467Z,98337.63
2023-02-01T03:41:53.948Z,98335.06
2023-02-01T03:44:27.978Z,98332.84
2023-02-01T03:47:01.319Z,98339.47
2023-02-01T03:49:32.996Z,98342.53
2023-02-01T03:52:04.816Z,98334.13
2023-02-01T03:54:36.430Z,98344.66
2023-02-01T03:57:10.450Z,98341.94
2023-02-01T03:59:42.390Z,98344.66
2023-02-01T04:02:11.441Z,98345.72
2023-02-01T04:04:40.758Z,98349.84
2023-02-01T04:07:10.652Z,98356.19
2023-02-01T04:09:41.092Z,98352.31
2023-02-01T04:12:10.235Z,98359.38
2023-02-01T04:14:39.319Z,98361.34
2023-02-01T04:17:08.325Z,98369.22
2023-02-01T04:19:37.289Z,98375.22
2023-02-01T04:22:06.333Z,98376.47
2023-02-01T04:24:35.333Z,98380.25
2023-02-01T04:27:05.773Z,98385.50
2023-02-01T04:29:34.785Z,98379.81
2023-02-01T04:32:03.760Z,98390.97
2023-02-01T04:34:32.808Z,98387.63
2023-02-01T04:37:02.317Z,98392.75
2023-02-01T04:39:31.311Z,98396.41
2023-02-01T04:42:00.272Z,98397.31
2023-02-01T04:44:30.694Z,98396.69
2023-02-01T04:46:59.759Z,98397.72
2023-02-01T04:49:28.745Z,98403.72
2023-02-01T04:51:57.780Z,98405.88
2023-02-01T04:54:26.835Z,98405.25
2023-02-01T04:56:55.951Z,98413.88
2023-02-01T04:59:25.010Z,98411.97
2023-02-01T05:01:55.632Z,98412.06
2023-02-01T05:04:24.639Z,98414.31
2023-02-01T05:06:53.666Z,98416.09
2023-02-01T05:09:23.049Z,98417.38
2023-02-01T05:12:08.516Z,98419.00
2023-02-01T05:14:37.473Z,98423.78
2023-02-01T05:17:07.813Z,98418.53
2023-02-01T05:19:36.810Z,98427.88
2023-02-01T05:22:05.852Z,98429.66
2023-02-01T05:24:34.799Z,98428.28
2023-02-01T05:27:03.779Z,98428.34
2023-02-01T05:29:32.797Z,98420.66
2023-02-01T05:32:19.298Z,98425.78
2023-02-01T05:34:51.517Z,98430.56
2023-02-01T05:37:20.569Z,98430.41
2023-02-01T05:39:49.735Z,98430.91
2023-02-01T05:42:19.011Z,98428.19
2023-02-01T05:44:48.025Z,98433.31
2023-02-01T05:47:16.990Z,98436.59
2023-02-01T05:49:45.986Z,98435.69
2023-02-01T05:52:20.361Z,98439.34
2023-02-01T05:54:49.425Z,98439.16
2023-02-01T05:57:18.448Z,98443.22
2023-02-01T05:59:48.608Z,98437.78
2023-02-01T06:02:17.897Z,98443.22
2023-02-01T06:04:47.007Z,98440.66
2023-02-01T06:07:17.435Z,98440.66
2023-02-01T06:09:46.534Z,98439.91
2023-02-01T06:12:15.912Z,98453.78
2023-02-01T06:14:44.875Z,98442.03
2023-02-01T06:17:13.963Z,98448.97
2023-02-01T06:19:42.952Z,98459.81
2023-02-01T06:22:12.024Z,98452.28
2023-02-01T06:24:42.822Z,98458.06
2023-02-01T06:27:12.992Z,98460.91
2023-02-01T06:29:42.004Z,98453.22
2023-02-01T06:32:11.069Z,98467.09
2023-02-01T06:34:40.926Z,98463.78
2023-02-01T06:37:09.869Z,98473.13
2023-02-01T06:39:38.956Z,98474.03
2023-02-01T06:42:09.454Z,98475.88
2023-02-01T06:44:38.485Z,98479.34
2023-02-01T06:47:09.262Z,98476.03
2023-02-01T06:49:38.435Z,98473.19
2023-02-01T06:52:07.589Z,98480.44
2023-02-01T06:54:38.505Z,98476.72
2023-02-01T06:57:09.068Z,98490.44
2023-02-01T06:59:38.201Z,98478.66
2023-02-01T07:02:07.773Z,98486.09
2023-02-01T07:04:37.794Z,98491.00
2023-02-01T07:07:06.897Z,98477.88
2023-02-01T07:09:37.552Z,98487.34
2023-02-01T07:12:08.715Z,98480.09
2023-02-01T07:14:37.675Z,98483.00
2023-02-01T07:17:06.859Z,98484.78
2023-02-01T07:19:37.449Z,98486.59
2023-02-01T07:22:06.686Z,98487.22
2023-02-01T07:24:36.686Z,98479.66
2023-02-01T07:27:05.798Z,98488.13
2023-02-01T07:29:36.170Z,98484.66
2023-02-01T07:32:05.237Z,98496.84
2023-02-01T07:34:35.300Z,98486.03
2023-02-01T07:37:04.286Z,98493.44
2023-02-01T07:39:33.251Z,98492.03
2023-02-01T07:42:03.108Z,98495.03
2023-02-01T07:44:32.276Z,98503.69
2023-02-01T07:47:02.739Z,98498.44
2023-02-01T07:49:31.873Z,98496.66
2023-02-01T07:52:01.076Z,98505.09
2023-02-01T07:54:30.096Z,98495.31
2023-02-01T07:56:59.726Z,98500.44
2023-02-01T07:59:28.866Z,98501.31
2023-02-01T08:01:56.968Z,98500.84
2023-02-01T08:04:27.473Z,98493.63
2023-02-01T08:06:56.438Z,98500.75
2023-02-01T08:09:25.398Z,98490.25
2023-02-01T08:11:54.427Z,98490.13
2023-02-01T08:14:23.494Z,98493.75
2023-02-01T08:16:52.603Z,98497.06
2023-02-01T08:19:21.603Z,98495.25
2023-02-01T08:21:52.050Z,98489.97
2023-02-01T08:24:22.560Z,98482.63
2023-02-01T08:26:51.569Z,98482.00
2023-02-01T08:29:20.712Z,98490.13
2023-02-01T08:31:49.855Z,98487.09
2023-02-01T08:34:18.832Z,98480.63
2023-02-01T08:36:48.244Z,98489.38
2023-02-01T08:39:18.711Z,98482.63
2023-02-01T08:42:08.675Z,98472.50
2023-02-01T08:44:37.847Z,98485.75
2023-02-01T08:47:06.958Z,98480.47
2023-02-01T08:49:36.054Z,98480.19
2023-02-01T08:52:10.688Z,98480.84
2023-02-01T08:54:45.892Z,98481.75
2023-02-01T08:57:14.966Z,98481.28
2023-02-01T08:59:45.077Z,98482.63
2023-02-01T09:02:16.226Z,98480.34
2023-02-01T09:04:45.781Z,98484.31
2023-02-01T09:07:15.317Z,98492.00
2023-02-01T09:09:46.397Z,98477.50
2023-02-01T09:12:15.412Z,98480.13
2023-02-01T09:14:44.642Z,98479.66
2023-02-01T09:17:14.603Z,98476.63
2023-02-01T09:19:43.648Z,98470.88
2023-02-01T09:22:12.754Z,98475.41
2023-02-01T09:24:42.162Z,98469.97
2023-02-01T09:27:12.700Z,98467.72
2023-02-01T09:29:42.137Z,98471.47
2023-02-01T09:32:11.444Z,98468.00
2023-02-01T09:34:40.576Z,98464.22
2023-02-01T09:37:13.390Z,98472.69
2023-02-01T09:39:45.119Z,98481.69
2023-02-01T09:42:26.699Z,98476.28
2023-02-01T09:45:09.723Z,98473.28
2023-02-01T09:47:45.736Z,98465.56
2023-02-01T09:50:22.047Z,98461.81
2023-02-01T09:52:58.493Z,98467.25
2023-02-01T09:55:36.045Z,98455.31
2023-02-01T09:58:10.743Z,98460.94
2023-02-01T10:00:41.063Z,98455.47
2023-02-01T10:03:14.719Z,98456.41
2023-02-01T10:06:10.969Z,98455.19
2023-02-01T10:09:01.123Z,98456.41
2023-02-01T10:11:49.523Z,98456.56
2023-02-01T10:14:46.012Z,98446.72
2023-02-01T10:17:26.899Z,98446.72
2023-02-01T10:20:09.786Z,98448.84
2023-02-01T10:23:08.730Z,98445.81
2023-02-01T10:25:40.146Z,98445.97
2023-02-01T10:28:16.751Z,98443.72
2023-02-01T10:30:49.427Z,98449.75
2023-02-01T10:33:21.409Z,98447.34
2023-02-01T10:35:57.995Z,98442.97
2023-02-01T10:38:29.491Z,98445.66
2023-02-01T10:41:05.773Z,98450.81
2023-02-01T10:43:35.180Z,98445.81
2023-02-01T10:46:06.319Z,98440.25
2023-02-01T10:48:37.018Z,98440.09
2023-02-01T10:51:14.523Z,98436.91
2023-02-01T10:53:50.538Z,98441.75
2023-02-01T10:56:25.897Z,98445.22
2023-02-01T10:59:03.375Z,98440.69
2023-02-01T11:01:39.992Z,98445.22
2023-02-01T11:04:12.715Z,98447.94
2023-02-01T11:06:45.236Z,98451.09
2023-02-01T11:09:21.669Z,98447.75
2023-02-01T11:11:59.967Z,98440.06
2023-02-01T11:14:36.500Z,98432.22
2023-02-01T11:17:24.988Z,98437.94
2023-02-01T11:20:00.166Z,98448.19
2023-02-01T11:22:30.874Z,98450.00
2023-02-01T11:25:13.120Z,98453.28
2023-02-01T11:27:53.224Z,98450.13
2023-02-01T11:30:35.242Z,98444.84
2023-02-01T11:33:07.619Z,98445.31
2023-02-01T11:35:39.952Z,98447.69
2023-02-01T11:38:21.759Z,98454.28
2023-02-01T11:40:52.044Z,98446.31
2023-02-01T11:43:26.515Z,98452.34
2023-02-01T11:46:00.803Z,98459.84
2023-02-01T11:48:35.487Z,98464.88
2023-02-01T11:51:25.122Z,98465.97
2023-02-01T11:54:13.913Z,98465.53
2023-02-01T11:56:50.365Z,98466.25
2023-02-01T11:59:38.838Z,98470.16
2023-02-01T12:02:26.198Z,98469.53
2023-02-01T12:05:10.784Z,98475.53
2023-02-01T12:07:57.231Z,98483.03
2023-02-01T12:10:39.113Z,98485.56
2023-02-01T12:13:22.614Z,98482.66
2023-02-01T12:16:03.120Z,98482.66
2023-02-01T12:18:49.993Z,98487.78
2023-02-01T12:21:45.240Z,98483.09
2023-02-01T12:25:04.654Z,98490.13
2023-02-01T12:27:52.178Z,98496.66
2023-02-01T12:30:53.531Z,98501.63
2023-02-01T12:33:34.459Z,98492.84
2023-02-01T12:36:15.357Z,98493.09
2023-02-01T12:39:00.486Z,98491.28
2023-02-01T12:41:44.600Z,98500.63
2023-02-01T12:44:19.601Z,98494.59
2023-02-01T12:46:52.739Z,98493.38
2023-02-01T12:49:26.706Z,98506.31
2023-02-01T12:52:01.634Z,98505.00
2023-02-01T12:54:38.510Z,98507.78
2023-02-01T12:57:13.131Z,98509.59
2023-02-01T12:59:46.980Z,98504.13
2023-02-01T13:02:22.236Z,98506.69
2023-02-01T13:05:02.952Z,98510.44
2023-02-01T13:07:40.694Z,98514.47
2023-02-01T13:10:18.164Z,98513.91
2023-02-01T13:12:54.804Z,98514.84
2023-02-01T13:15:28.409Z,98514.38
2023-02-01T13:18:03.295Z,98520.41
2023-02-01T13:20:34.695Z,98514.81
2023-02-01T13:23:10.492Z,98521.75
2023-02-01T13:25:49.137Z,98519.78
2023-02-01T13:28:22.564Z,98517.22
2023-02-01T13:31:17.636Z,98518.84
2023-02-01T13:34:02.131Z,98513.59
2023-02-01T13:36:44.601Z,98521.84
2023-02-01T13:39:48.654Z,98525.06
2023-02-01T13:42:23.878Z,98521.41
2023-02-01T13:44:54.110Z,98517.31
2023-02-01T13:47:29.839Z,98517.84
2023-02-01T13:50:01.723Z,98516.19
2023-02-01T13:52:40.115Z,98513.31
2023-02-01T13:55:28.307Z,98517.03
2023-02-01T13:58:12.860Z,98528.44
2023-02-01T14:00:44.068Z,98520.75
2023-02-01T14:03:21.919Z,98520.34
2023-02-01T14:06:18.845Z,98525.16
2023-02-01T14:09:09.672Z,98522.81
2023-02-01T14:11:42.563Z,98523.25
2023-02-01T14:14:44.718Z,98523.84
2023-02-01T14:17:39.358Z,98521.38
2023-02-01T14:20:50.047Z,98524.09
2023-02-01T14:23:28.947Z,98527.00
2023-02-01T14:26:20.729Z,98529.72
2023-02-01T14:28:56.525Z,98531.44
2023-02-01T14:31:36.632Z,98540.22
2023-02-01T14:34:15.941Z,98543.09
2023-02-01T14:36:50.229Z,98540.03
2023-02-01T14:39:40.508Z,98538.38
2023-02-01T14:42:24.717Z,98538.72
2023-02-01T14:44:58.993Z,98544.84
2023-02-01T14:47:32.281Z,98545.06
2023-02-01T14:50:27.333Z,98543.41
2023-02-01T14:53:18.012Z,98546.53
2023-02-01T14:55:50.548Z,98557.78
2023-02-01T14:58:33.939Z,98550.41
2023-02-01T15:01:07.456Z,98553.72
2023-02-01T15:03:48.288Z,98553.59
2023-02-01T15:06:30.588Z,98555.72
2023-02-01T15:09:01.941Z,98553.59
2023-02-01T15:11:31.570Z,98550.69
2023-02-01T15:14:01.705Z,98558.03
2023-02-01T15:16:30.919Z,98552.16
2023-02-01T15:19:13.776Z,98552.91
2023-02-01T15:21:53.759Z,98560.34
2023-02-01T15:24:25.615Z,98567.66
2023-02-01T15:26:56.219Z,98562.16
2023-02-01T15:29:28.967Z,98561.31
2023-02-01T15:31:58.120Z,98560.44
2023-02-01T15:34:47.903Z,98567.91
2023-02-01T15:37:19.724Z,98562.50
2023-02-01T15:40:23.159Z,98563.13
2023-02-01T15:42:54.996Z,98567.50
2023-02-01T15:45:27.481Z,98568.59
2023-02-01T15:47:59.759Z,98573.44
2023-02-01T15:50:31.468Z,98568.94
2023-02-01T15:53:02.383Z,98564.97
2023-02-01T15:55:37.919Z,98575.97
2023-02-01T15:58:08.787Z,98573.28
2023-02-01T16:00:45.778Z,98575.03
2023-02-01T16:03:29.325Z,98579.16
2023-02-01T16:06:00.314Z,98585.09
2023-02-01T16:08:33.503Z,98583.09
2023-02-01T16:11:16.211Z,98583.09
2023-02-01T16:14:06.599Z,98586.56
2023-02-01T16:16:55.032Z,98580.06
2023-02-01T16:19:29.019Z,98589.19
2023-02-01T16:21:59.429Z,98587.38
2023-02-01T16:24:30.281Z,98589.03
2023-02-01T16:26:59.495Z,98592.00
2023-02-01T16:29:28.567Z,98596.75
2023-02-01T16:31:57.991Z,98591.25
2023-02-01T16:34:27.255Z,98593.06
2023-02-01T16:36:58.321Z,98590.34
2023-02-01T16:39:28.836Z,98598.75
2023-02-01T16:42:01.049Z,98600.22
2023-02-01T16:44:30.818Z,98597.50
2023-02-01T16:46:59.953Z,98600.63
2023-02-01T16:49:29.035Z,98598.06
2023-02-01T16:52:00.930Z,98599.56
2023-02-01T16:54:29.969Z,98603.75
2023-02-01T16:57:00.728Z,98596.06
2023-02-01T16:59:29.764Z,98595.91
2023-02-01T17:01:58.751Z,98599.22
2023-02-01T17:04:27.956Z,98602.84
2023-02-01T17:06:57.161Z,98602.50
2023-02-01T17:09:26.791Z,98604.00
2023-02-01T17:11:55.915Z,98601.59
2023-02-01T17:14:26.336Z,98599.94
2023-02-01T17:16:55.810Z,98598.22
2023-02-01T17:19:25.826Z,98599.56
2023-02-01T17:21:59.870Z,98597.56
2023-02-01T17:24:46.587Z,98603.19
2023-02-01T17:27:20.881Z,98604.00
2023-02-01T17:29:51.927Z,98609.09
2023-02-01T17:32:23.102Z,98603.66
2023-02-01T17:34:52.665Z,98602.19
2023-02-01T17:37:27.335Z,98606.91
2023-02-01T17:39:58.227Z,98607.09
2023-02-01T17:42:28.987Z,98600.88
2023-02-01T17:45:02.736Z,98600.34
2023-02-01T17:47:33.639Z,98604.56
2023-02-01T17:50:04.026Z,98612.97
2023-02-01T17:52:33.598Z,98607.69
2023-02-01T17:55:04.879Z,98608.41
2023-02-01T17:57:33.966Z,98611.72
2023-02-01T18:00:05.246Z,98605.41
2023-02-01T18:02:34.613Z,98607.81
2023-02-01T18:05:05.295Z,98601.03
2023-02-01T18:07:34.283Z,98610.56
2023-02-01T18:10:03.347Z,98597.88
2023-02-01T18:12:35.056Z,98608.38
2023-02-01T18:15:17.281Z,98597.97
2023-02-01T18:17:46.765Z,98604.22
2023-02-01T18:20:17.511Z,98603.66
2023-02-01T18:22:48.798Z,98603.31
2023-02-01T18:25:22.142Z,98604.00
2023-02-01T18:28:03.863Z,98604.22
2023-02-01T18:30:35.748Z,98601.34
2023-02-01T18:33:05.653Z,98605.72
2023-02-01T18:35:34.963Z,98601.84
2023-02-01T18:38:04.045Z,98605.06
2023-02-01T18:40:35.784Z,98598.63
2023-02-01T18:43:05.158Z,98594.97
2023-02-01T18:45:39.176Z,98592.81
2023-02-01T18:48:10.189Z,98585.13
2023-02-01T18:50:43.074Z,98590.19
2023-02-01T18:53:16.458Z,98581.03
2023-02-01T18:55:46.460Z,98586.78
2023-02-01T18:58:17.308Z,98578.44
2023-02-01T19:00:48.693Z,98586.38
2023-02-01T19:03:18.704Z,98585.28
2023-02-01T19:05:49.730Z,98590.56
2023-02-01T19:12:57.675Z,98591.16
2023-02-01T19:15:27.652Z,98593.09
2023-02-01T19:17:58.987Z,98591.72
2023-02-01T19:20:34.607Z,98592.53
2023-02-01T19:23:05.240Z,98594.59
2023-02-01T19:25:34.318Z,98602.25
2023-02-01T19:28:03.569Z,98600.75
2023-02-01T19:30:32.622Z,98599.09
2023-02-01T19:33:04.650Z,98594.38
2023-02-01T19:35:35.562Z,98607.16
2023-02-01T19:38:05.549Z,98606.44
2023-02-01T19:40:51.840Z,98597.84
2023-02-01T19:43:26.670Z,98602.06
2023-02-01T19:45:56.083Z,98612.28
2023-02-01T19:48:28.190Z,98606.09
2023-02-01T19:50:59.299Z,98606.25
2023-02-01T19:53:29.951Z,98613.94
2023-02-01T19:56:01.984Z,98606.84
2023-02-01T19:58:31.321Z,98609.22
2023-02-01T20:01:00.425Z,98603.19
2023-02-01T20:03:30.869Z,98605.75
2023-02-01T20:06:00.645Z,98610.69
2023-02-01T20:08:29.703Z,98608.16
2023-02-01T20:10:58.972Z,98608.84
2023-02-01T20:13:27.990Z,98608.84
2023-02-01T20:15:59.646Z,98614.88
2023-02-01T20:18:30.574Z,98616.72
2023-02-01T20:21:00.326Z,98612.88
2023-02-01T20:23:29.606Z,98613.75
2023-02-01T20:26:03.241Z,98610.88
2023-02-01T20:28:32.805Z,98611.97
2023-02-01T20:31:03.887Z,98614.31
2023-02-01T20:33:35.144Z,98610.88
2023-02-01T20:36:04.368Z,98613.25
2023-02-01T20:38:33.571Z,98615.97
2023-02-01T20:41:07.012Z,98613.41
2023-02-01T20:43:37.748Z,98617.44
2023-02-01T20:46:09.029Z,98614.88
2023-02-01T20:48:39.790Z,98615.47
2023-02-01T20:51:08.897Z,98623.69
2023-02-01T20:53:38.046Z,98617.50
2023-02-01T20:56:07.945Z,98623.31
2023-02-01T20:58:37.711Z,98617.31
2023-02-01T21:01:07.139Z,98617.16
2023-02-01T21:03:38.413Z,98619.75
2023-02-01T21:06:08.801Z,98615.78
2023-02-01T21:08:37.863Z,98619.03
2023-02-01T21:11:09.540Z,98618.72
2023-02-01T21:13:44.369Z,98622.34
2023-02-01T21:16:15.614Z,98610.66
2023-02-01T21:18:47.407Z,98615.19
2023-02-01T21:21:17.636Z,98614.47
2023-02-01T21:24:06.499Z,98609.94
2023-02-01T21:26:41.316Z,98612.09
2023-02-01T21:29:11.699Z,98613.91
2023-02-01T21:31:42.050Z,98608.63
2023-02-01T21:34:12.705Z,98611.19
2023-02-01T21:36:41.767Z,98611.00
2023-02-01T21:39:12.266Z,98610.28
2023-02-01T21:41:55.145Z,98608.63
2023-02-01T21:44:24.912Z,98613.75
2023-02-01T21:46:55.817Z,98616.44
2023-02-01T21:49:27.768Z,98610.59
2023-02-01T21:51:56.960Z,98620.44
2023-02-01T21:54:26.003Z,98617.72
2023-02-01T21:56:55.181Z,98614.25
2023-02-01T21:59:24.159Z,98611.84
2023-02-01T22:01:54.389Z,98611.31
2023-02-01T22:04:23.362Z,98614.75
2023-02-01T22:06:53.758Z,98618.63
2023-02-01T22:09:24.649Z,98612.59
2023-02-01T22:11:55.288Z,98608.59
2023-02-01T22:14:24.644Z,98607.50
2023-02-01T22:16:53.885Z,98612.94
2023-02-01T22:19:23.259Z,98612.06
2023-02-01T22:21:53.754Z,98606.94
2023-02-01T22:24:22.876Z,98607.28
2023-02-01T22:26:52.095Z,98605.84
2023-02-01T22:29:21.164Z,98607.84
2023-02-01T22:31:50.291Z,98606.19
2023-02-01T22:34:19.683Z,98608.75
2023-02-01T22:36:49.289Z,98599.63
2023-02-01T22:39:19.674Z,98608.00
2023-02-01T22:41:48.846Z,98606.19
2023-02-01T22:44:17.840Z,98603.63
2023-02-01T22:46:46.891Z,98595.97
2023-02-01T22:49:15.880Z,98602.19
2023-02-01T22:51:46.379Z,98597.06
2023-02-01T22:54:19.075Z,98604.00
2023-02-01T22:56:49.854Z,98613.31
2023-02-01T22:59:19.147Z,98610.00
2023-02-01T23:01:48.183Z,98605.44
2023-02-01T23:04:17.350Z,98601.81
2023-02-01T23:06:46.630Z,98600.03
2023-02-01T23:09:17.760Z,98605.13
2023-02-01T23:11:48.208Z,98605.13
2023-02-01T23:14:17.956Z,98608.00
2023-02-01T23:16:48.620Z,98596.13
2023-02-01T23:19:18.292Z,98600.34
2023-02-01T23:21:47.575Z,98599.78
2023-02-01T23:24:16.707Z,98604.72
2023-02-01T23:26:45.828Z,98598.53
2023-02-01T23:29:19.621Z,98599.66
2023-02-01T23:31:48.788Z,98605.13
2023-02-01T23:34:17.933Z,98601.47
2023-02-01T23:36:46.927Z,98603.28
2023-02-01T23:39:15.880Z,98600.03
2023-02-01T23:41:44.879Z,98605.28
2023-02-01T23:44:12.798Z,98605.44
2023-02-01T23:46:47.422Z,98607.84
2023-02-01T23:49:17.745Z,98612.06
2023-02-01T23:51:51.733Z,98605.44
2023-02-01T23:54:23.827Z,98605.44
2023-02-01T23:56:52.937Z,98608.19
2023-02-01T23:59:23.712Z,98598.69
